Time;durP1;ratioP1;P1;durP2;ratioP2;P2;SDS_P1;SDS_P2;PMS_P1;PMS_P2;Temp;Humidity;BMP_temperature;BMP_pressure;BME280_temperature;BME280_humidity;BME280_pressure;Samples;Min_cycle;Max_cycle;Signal;HPM_P1;HPM_P2
2023/01/21 00:00:00;;;;;;;29.50;16.87;;;-1.20;99.90;;;;;;4992519;28;20246;-48
2023/01/21 00:02:27;;;;;;;25.93;15.63;;;-1.20;99.90;;;;;;4992914;28;20207;-48
2023/01/21 00:04:54;;;;;;;22.40;14.70;;;-1.30;99.90;;;;;;4992497;28;20704;-48
2023/01/21 00:07:22;;;;;;;24.70;13.63;;;-1.30;99.90;;;;;;4990047;28;20203;-48
2023/01/21 00:09:49;;;;;;;21.07;14.90;;;-1.30;99.90;;;;;;4991381;28;20205;-48
2023/01/21 00:12:17;;;;;;;28.37;15.93;;;-1.40;99.90;;;;;;4985510;28;20198;-47
2023/01/21 00:14:44;;;;;;;20.83;13.30;;;-1.40;99.90;;;;;;4990868;28;20280;-47
2023/01/21 00:17:14;;;;;;;22.70;14.07;;;-1.40;99.90;;;;;;4992737;28;20200;-47
2023/01/21 00:19:41;;;;;;;20.77;12.63;;;-1.40;99.90;;;;;;4992702;28;20250;-48
2023/01/21 00:22:08;;;;;;;19.50;12.23;;;-1.40;99.90;;;;;;4986575;28;20207;-47
2023/01/21 00:24:36;;;;;;;19.07;12.47;;;-1.40;99.90;;;;;;4989179;28;20217;-48
2023/01/21 00:27:03;;;;;;;16.97;11.57;;;-1.40;99.90;;;;;;4987066;28;20211;-48
2023/01/21 00:29:30;;;;;;;20.13;12.50;;;-1.40;99.90;;;;;;4988673;28;20732;-47
2023/01/21 00:31:57;;;;;;;20.83;12.03;;;-1.40;99.90;;;;;;4988211;28;20205;-48
2023/01/21 00:34:24;;;;;;;18.87;12.10;;;-1.30;99.90;;;;;;4987716;28;20254;-47
2023/01/21 00:36:51;;;;;;;20.30;11.70;;;-1.40;99.90;;;;;;4992244;28;20758;-48
2023/01/21 00:39:18;;;;;;;22.70;13.53;;;-1.40;99.90;;;;;;4991249;28;20256;-47
2023/01/21 00:41:46;;;;;;;22.63;14.57;;;-1.40;99.90;;;;;;4983859;28;20247;-47
2023/01/21 00:44:13;;;;;;;25.50;14.87;;;-1.40;99.90;;;;;;4991853;28;20679;-48
2023/01/21 00:46:40;;;;;;;24.90;15.27;;;-1.40;99.90;;;;;;4989852;28;20278;-47
2023/01/21 00:49:07;;;;;;;19.87;12.70;;;-1.50;99.90;;;;;;4991403;28;20202;-48
2023/01/21 00:51:34;;;;;;;30.97;16.13;;;-1.50;99.90;;;;;;4984792;28;20579;-48
2023/01/21 00:54:01;;;;;;;23.90;16.40;;;-1.50;99.90;;;;;;4995785;28;20206;-48
2023/01/21 00:56:29;;;;;;;23.93;14.93;;;-1.50;99.90;;;;;;4995290;28;20227;-47
2023/01/21 00:58:57;;;;;;;24.13;15.20;;;-1.50;99.90;;;;;;4995216;28;20249;-48
2023/01/21 01:01:25;;;;;;;24.53;13.50;;;-1.50;99.90;;;;;;4994139;28;20266;-47
2023/01/21 01:03:52;;;;;;;22.07;13.70;;;-1.50;99.90;;;;;;4995493;28;20198;-47
2023/01/21 01:06:21;;;;;;;18.13;12.73;;;-1.50;99.90;;;;;;4995605;28;20237;-47
2023/01/21 01:08:49;;;;;;;20.73;12.83;;;-1.50;99.90;;;;;;4995113;28;20262;-48
2023/01/21 01:11:17;;;;;;;17.43;11.77;;;-1.40;99.90;;;;;;4994538;28;20287;-48
2023/01/21 01:13:44;;;;;;;14.47;9.70;;;-1.40;99.90;;;;;;4995002;28;20261;-48
2023/01/21 01:16:15;;;;;;;12.97;10.07;;;-1.50;99.90;;;;;;4995167;28;20220;-47
2023/01/21 01:18:42;;;;;;;16.67;10.60;;;-1.50;99.90;;;;;;4995570;28;20635;-48
2023/01/21 01:21:11;;;;;;;13.93;9.63;;;-1.50;99.90;;;;;;4986659;28;20256;-46
2023/01/21 01:23:38;;;;;;;15.23;9.77;;;-1.50;99.90;;;;;;4994248;28;20203;-48
2023/01/21 01:26:07;;;;;;;16.17;9.77;;;-1.50;99.90;;;;;;4992269;28;20283;-48
2023/01/21 01:28:35;;;;;;;11.87;8.43;;;-1.50;99.90;;;;;;4995089;28;20621;-48
2023/01/21 01:31:05;;;;;;;17.27;11.27;;;-1.40;99.90;;;;;;4990463;28;20245;-47
2023/01/21 01:33:33;;;;;;;47.23;24.30;;;-1.30;99.90;;;;;;4986161;28;20297;-48
2023/01/21 01:36:02;;;;;;;24.47;14.70;;;-1.40;99.90;;;;;;4994882;28;20225;-48
2023/01/21 01:38:29;;;;;;;19.43;11.97;;;-1.20;99.90;;;;;;4995396;28;20208;-49
2023/01/21 01:40:56;;;;;;;25.57;12.17;;;-1.20;99.90;;;;;;4989446;28;20765;-51
2023/01/21 01:43:25;;;;;;;15.00;9.93;;;-1.30;99.90;;;;;;4991893;28;20207;-50
2023/01/21 01:45:53;;;;;;;17.13;9.63;;;-1.30;99.90;;;;;;4991081;28;20288;-48
2023/01/21 01:48:24;;;;;;;19.60;12.03;;;-1.30;99.90;;;;;;4994608;28;20622;-49
2023/01/21 01:50:55;;;;;;;17.33;11.60;;;-1.40;99.90;;;;;;4992013;28;20273;-52
2023/01/21 01:53:22;;;;;;;19.07;11.40;;;-1.40;99.90;;;;;;4990346;28;20267;-50
2023/01/21 01:55:50;;;;;;;22.23;12.27;;;-1.30;99.90;;;;;;4994567;28;20222;-49
2023/01/21 01:58:19;;;;;;;20.33;12.83;;;-1.20;99.90;;;;;;4985903;28;20251;-47
2023/01/21 02:00:46;;;;;;;24.30;12.60;;;-1.20;99.90;;;;;;4994461;28;20260;-50
2023/01/21 02:05:59;;;;;;;19.80;12.33;;;-1.20;99.90;;;;;;4994305;28;20658;-50
2023/01/21 02:08:27;;;;;;;22.57;13.10;;;-1.30;99.90;;;;;;4992357;28;20208;-50
2023/01/21 02:10:55;;;;;;;19.40;12.27;;;-1.30;99.90;;;;;;4992060;28;20384;-48
2023/01/21 02:13:24;;;;;;;18.60;12.27;;;-1.30;99.90;;;;;;4994118;28;20224;-50
2023/01/21 02:16:08;;;;;;;26.30;15.47;;;-1.30;99.90;;;;;;4992526;28;20223;-48
2023/01/21 02:18:42;;;;;;;28.93;14.10;;;-1.30;99.90;;;;;;4990106;28;20389;-49
2023/01/21 02:21:49;;;;;;;21.40;13.93;;;-1.40;99.90;;;;;;4994287;28;20202;-49
2023/01/21 02:24:49;;;;;;;19.10;13.20;;;-1.40;99.90;;;;;;4993778;28;20706;-50
2023/01/21 02:27:36;;;;;;;18.57;12.87;;;-1.30;99.90;;;;;;4975130;28;20274;-48
2023/01/21 02:30:31;;;;;;;22.30;14.10;;;-1.30;99.90;;;;;;4976406;28;20213;-50
2023/01/21 02:33:46;;;;;;;20.97;13.67;;;-1.30;99.90;;;;;;4990089;28;20734;-51
2023/01/21 02:36:34;;;;;;;22.10;13.43;;;-1.30;99.90;;;;;;4948327;28;20276;-50
2023/01/21 02:39:12;;;;;;;22.73;14.50;;;-1.30;99.90;;;;;;4988082;28;20668;-49
2023/01/21 02:41:52;;;;;;;21.53;13.10;;;-1.30;99.90;;;;;;4994200;28;20204;-49
2023/01/21 02:44:25;;;;;;;18.93;13.87;;;-1.20;99.90;;;;;;4992974;28;20211;-49
2023/01/21 02:46:57;;;;;;;19.70;12.63;;;-1.30;99.90;;;;;;4992447;28;20221;-52
2023/01/21 02:49:30;;;;;;;19.63;12.87;;;-1.20;99.90;;;;;;4992949;28;20739;-49
2023/01/21 02:51:58;;;;;;;23.80;14.20;;;-1.20;99.90;;;;;;4986986;28;20679;-49
2023/01/21 02:54:48;;;;;;;18.70;13.83;;;-1.20;99.90;;;;;;4989408;28;20626;-49
2023/01/21 02:57:21;;;;;;;19.80;13.33;;;-1.20;99.90;;;;;;4992233;28;20204;-50
2023/01/21 02:59:53;;;;;;;20.87;13.57;;;-1.20;99.90;;;;;;4989707;28;20198;-50
2023/01/21 03:02:32;;;;;;;22.80;15.50;;;-1.20;99.90;;;;;;4993498;28;20556;-49
2023/01/21 03:05:08;;;;;;;20.13;15.03;;;-1.10;99.90;;;;;;4983052;28;20287;-49
2023/01/21 03:07:42;;;;;;;20.23;14.17;;;-1.10;99.90;;;;;;4984601;28;20215;-49
2023/01/21 03:10:15;;;;;;;22.87;14.87;;;-1.10;99.90;;;;;;4987977;28;20210;-50
2023/01/21 03:12:49;;;;;;;23.13;13.50;;;-1.10;99.90;;;;;;4989419;28;20209;-49
2023/01/21 03:18:11;;;;;;;18.27;13.50;;;-1.10;99.90;;;;;;4979288;28;20194;-49
2023/01/21 03:20:43;;;;;;;21.37;13.50;;;-1.10;99.90;;;;;;4989039;28;20227;-49
2023/01/21 03:23:16;;;;;;;24.13;14.97;;;-1.00;99.90;;;;;;4992426;28;20201;-49
2023/01/21 03:25:46;;;;;;;23.43;14.57;;;-1.10;99.90;;;;;;4991543;28;20279;-50
2023/01/21 03:28:17;;;;;;;22.73;12.70;;;-1.00;99.90;;;;;;4992424;28;20213;-48
2023/01/21 03:30:48;;;;;;;22.33;13.83;;;-0.90;99.90;;;;;;4987846;28;20206;-49
2023/01/21 03:33:16;;;;;;;21.50;13.87;;;-0.80;99.90;;;;;;4987939;28;20213;-48
2023/01/21 03:35:47;;;;;;;22.27;13.93;;;-0.90;99.90;;;;;;4991944;28;20224;-50
2023/01/21 03:38:21;;;;;;;19.53;12.50;;;-1.00;99.90;;;;;;4990868;28;20344;-49
2023/01/21 03:40:54;;;;;;;22.10;14.70;;;-1.10;99.90;;;;;;4988733;28;20202;-50
2023/01/21 03:43:22;;;;;;;18.63;12.70;;;-1.10;99.90;;;;;;4987662;28;20564;-50
2023/01/21 03:45:55;;;;;;;21.47;13.00;;;-1.10;99.90;;;;;;5023617;22;20227;-48
2023/01/21 03:48:27;;;;;;;23.77;16.07;;;-1.00;99.90;;;;;;5006884;28;20265;-48
2023/01/21 03:51:01;;;;;;;23.80;15.13;;;-1.10;99.90;;;;;;5010307;28;20219;-48
2023/01/21 03:53:29;;;;;;;20.87;15.07;;;-1.10;99.90;;;;;;5014349;28;20203;-49
2023/01/21 03:55:58;;;;;;;20.03;13.17;;;-1.10;99.90;;;;;;5010393;28;20636;-48
2023/01/21 03:58:25;;;;;;;25.00;15.23;;;-1.10;99.90;;;;;;5002303;28;20200;-48
2023/01/21 04:00:52;;;;;;;19.93;13.00;;;-1.10;99.90;;;;;;5001928;28;20256;-48
2023/01/21 04:03:18;;;;;;;20.27;13.50;;;-1.00;99.90;;;;;;5010355;28;20626;-48
2023/01/21 04:05:45;;;;;;;21.33;15.30;;;-1.00;99.90;;;;;;5008827;28;20225;-48
2023/01/21 04:08:12;;;;;;;23.50;15.33;;;-0.90;99.90;;;;;;5010080;28;20253;-48
2023/01/21 04:10:41;;;;;;;22.67;14.73;;;-0.80;99.90;;;;;;5010902;28;20259;-49
2023/01/21 04:13:08;;;;;;;24.20;15.53;;;-0.80;99.90;;;;;;5010651;28;20197;-50
2023/01/21 04:15:34;;;;;;;24.03;15.00;;;-0.90;99.90;;;;;;5008145;28;20267;-48
2023/01/21 04:18:01;;;;;;;23.40;16.67;;;-1.00;99.90;;;;;;4995033;28;20205;-48
2023/01/21 04:20:28;;;;;;;28.07;15.93;;;-1.00;99.90;;;;;;5010443;28;20203;-48
2023/01/21 04:22:55;;;;;;;27.63;16.30;;;-1.00;99.90;;;;;;5004469;28;20249;-48
2023/01/21 04:25:22;;;;;;;25.77;15.87;;;-1.00;99.90;;;;;;5006988;28;20290;-48
2023/01/21 04:27:51;;;;;;;25.50;15.43;;;-1.00;99.90;;;;;;5006743;28;20200;-48
2023/01/21 04:30:18;;;;;;;26.97;18.00;;;-1.00;99.90;;;;;;5011067;28;20203;-48
2023/01/21 04:32:45;;;;;;;29.37;18.23;;;-1.00;99.90;;;;;;5010606;28;20270;-48
2023/01/21 04:35:12;;;;;;;32.07;18.80;;;-0.90;99.90;;;;;;5007801;28;20227;-48
2023/01/21 04:37:39;;;;;;;28.73;18.70;;;-1.00;99.90;;;;;;5004396;28;20204;-48
2023/01/21 04:40:07;;;;;;;32.27;20.10;;;-1.00;99.90;;;;;;5008265;28;20255;-48
2023/01/21 04:42:34;;;;;;;32.77;19.23;;;-1.00;99.90;;;;;;5010049;28;20666;-49
2023/01/21 04:45:02;;;;;;;31.50;18.83;;;-1.00;99.90;;;;;;5002694;28;20579;-49
2023/01/21 04:47:29;;;;;;;33.97;18.93;;;-1.00;99.90;;;;;;5006438;28;20264;-49
2023/01/21 04:49:56;;;;;;;34.37;20.27;;;-1.00;99.90;;;;;;5010595;28;20216;-48
2023/01/21 04:52:23;;;;;;;35.53;20.20;;;-1.00;99.90;;;;;;5002398;28;20275;-47
2023/01/21 04:54:50;;;;;;;36.97;21.27;;;-1.00;99.90;;;;;;5007247;28;20204;-49
2023/01/21 04:57:20;;;;;;;31.60;19.30;;;-1.10;99.90;;;;;;5007722;28;20551;-48
2023/01/21 04:59:47;;;;;;;34.73;21.20;;;-1.10;99.90;;;;;;5008268;28;20219;-48
2023/01/21 05:02:19;;;;;;;33.90;20.87;;;-1.10;99.90;;;;;;5010280;28;20261;-48
2023/01/21 05:04:46;;;;;;;32.07;20.67;;;-1.10;99.90;;;;;;5004822;28;20202;-48
2023/01/21 05:07:13;;;;;;;32.13;20.70;;;-1.10;99.90;;;;;;5009578;28;20229;-47
2023/01/21 05:09:40;;;;;;;33.90;21.50;;;-1.10;99.90;;;;;;5009130;28;20196;-48
2023/01/21 05:12:08;;;;;;;34.97;20.97;;;-1.10;99.90;;;;;;5007963;28;20584;-48
2023/01/21 05:14:35;;;;;;;31.00;19.17;;;-1.10;99.90;;;;;;5006545;28;20215;-49
2023/01/21 05:17:02;;;;;;;27.40;16.57;;;-1.20;99.90;;;;;;5010672;28;20217;-48
2023/01/21 05:19:30;;;;;;;28.37;16.60;;;-1.20;99.90;;;;;;5009853;28;20593;-48
2023/01/21 05:21:57;;;;;;;29.73;18.17;;;-1.20;99.90;;;;;;4998079;28;20250;-48
2023/01/21 05:24:24;;;;;;;33.33;18.73;;;-1.20;99.90;;;;;;5009475;28;20508;-48
2023/01/21 05:26:51;;;;;;;30.40;17.90;;;-1.20;99.90;;;;;;5008944;28;20650;-48
2023/01/21 05:29:18;;;;;;;29.50;17.03;;;-1.20;99.90;;;;;;5004906;28;20624;-48
2023/01/21 05:31:45;;;;;;;32.40;18.07;;;-1.20;99.90;;;;;;5003697;28;20200;-47
2023/01/21 05:34:13;;;;;;;32.53;18.87;;;-1.30;99.90;;;;;;5010345;28;20200;-48
2023/01/21 05:36:41;;;;;;;39.97;20.43;;;-1.40;99.90;;;;;;5010329;28;20464;-48
2023/01/21 05:39:08;;;;;;;35.43;20.80;;;-1.30;99.90;;;;;;5012597;28;20399;-50
2023/01/21 05:41:35;;;;;;;31.20;19.40;;;-1.30;99.90;;;;;;5012962;28;20633;-48
2023/01/21 05:44:02;;;;;;;35.10;19.23;;;-1.30;99.90;;;;;;5008933;28;20465;-48
2023/01/21 05:46:29;;;;;;;30.13;18.03;;;-1.40;99.90;;;;;;5007363;28;20235;-48
2023/01/21 05:48:56;;;;;;;32.33;18.33;;;-1.40;99.90;;;;;;5010266;28;21012;-48
2023/01/21 05:51:23;;;;;;;35.73;21.27;;;-1.40;99.90;;;;;;5013383;28;20463;-48
2023/01/21 05:53:51;;;;;;;34.83;20.47;;;-1.50;99.90;;;;;;5006653;28;20261;-48
2023/01/21 05:56:18;;;;;;;31.57;19.40;;;-1.50;99.90;;;;;;5008264;28;20682;-48
2023/01/21 05:58:45;;;;;;;31.03;19.47;;;-1.50;99.90;;;;;;5012918;28;20468;-48
2023/01/21 06:01:12;;;;;;;33.73;19.93;;;-1.40;99.90;;;;;;5011799;28;20666;-48
2023/01/21 06:03:39;;;;;;;31.97;18.97;;;-1.50;99.90;;;;;;5004390;28;20458;-48
2023/01/21 06:06:07;;;;;;;28.13;18.97;;;-1.50;99.90;;;;;;5006472;28;20528;-48
2023/01/21 06:08:34;;;;;;;34.93;20.53;;;-1.50;99.90;;;;;;5018520;28;20458;-48
2023/01/21 06:11:02;;;;;;;35.30;19.47;;;-1.50;99.90;;;;;;5011844;28;20466;-48
2023/01/21 06:13:29;;;;;;;36.77;21.70;;;-1.50;99.90;;;;;;5004745;28;20583;-48
2023/01/21 06:15:56;;;;;;;40.23;23.43;;;-1.50;99.90;;;;;;5003239;28;20477;-48
2023/01/21 06:18:24;;;;;;;37.93;21.53;;;-1.50;99.90;;;;;;5017500;28;20466;-48
2023/01/21 06:20:51;;;;;;;37.93;22.20;;;-1.60;99.90;;;;;;5027139;28;20474;-48
2023/01/21 06:23:18;;;;;;;41.90;22.00;;;-1.60;99.90;;;;;;5027808;28;20377;-48
2023/01/21 06:25:45;;;;;;;43.63;23.63;;;-1.60;99.90;;;;;;5026101;28;20278;-48
2023/01/21 06:28:13;;;;;;;35.57;21.03;;;-1.70;99.90;;;;;;5010728;28;20458;-48
2023/01/21 06:30:40;;;;;;;41.57;21.97;;;-1.70;99.90;;;;;;5011650;28;20739;-47
2023/01/21 06:33:07;;;;;;;40.50;22.47;;;-1.80;99.90;;;;;;5001309;28;20521;-48
2023/01/21 06:35:35;;;;;;;38.83;23.93;;;-1.80;99.90;;;;;;5011530;28;20485;-47
2023/01/21 06:38:03;;;;;;;40.13;23.03;;;-1.80;99.90;;;;;;5010887;28;20523;-48
2023/01/21 06:40:30;;;;;;;35.10;19.47;;;-1.80;99.90;;;;;;5011205;28;20462;-48
2023/01/21 06:42:57;;;;;;;40.90;21.40;;;-1.80;99.90;;;;;;5005018;28;20528;-48
2023/01/21 06:45:25;;;;;;;39.00;21.33;;;-1.80;99.90;;;;;;5010440;28;20497;-49
2023/01/21 06:47:52;;;;;;;38.13;20.43;;;-1.80;99.90;;;;;;5007510;28;20872;-48
2023/01/21 06:50:19;;;;;;;34.70;21.23;;;-1.80;99.90;;;;;;4992475;28;20570;-48
2023/01/21 06:52:48;;;;;;;38.70;21.00;;;-1.80;99.90;;;;;;5005973;28;20811;-48
2023/01/21 06:55:16;;;;;;;37.03;19.97;;;-1.80;99.90;;;;;;5012337;28;20466;-48
2023/01/21 06:57:44;;;;;;;36.70;21.67;;;-1.90;99.90;;;;;;5012876;28;20444;-48
2023/01/21 07:00:12;;;;;;;41.77;21.23;;;-1.90;99.90;;;;;;5012442;28;20457;-47
2023/01/21 07:02:41;;;;;;;44.17;24.03;;;-1.90;99.90;;;;;;5010274;28;20458;-47
2023/01/21 07:05:08;;;;;;;46.33;23.60;;;-1.90;99.90;;;;;;5007663;28;20490;-48
2023/01/21 07:07:35;;;;;;;42.73;21.83;;;-1.90;99.90;;;;;;5003329;28;21004;-48
2023/01/21 07:10:03;;;;;;;39.67;21.47;;;-2.00;99.90;;;;;;5007881;28;20531;-48
2023/01/21 07:12:30;;;;;;;39.67;21.87;;;-2.00;99.90;;;;;;5003678;28;20555;-48
2023/01/21 07:14:57;;;;;;;43.60;22.13;;;-2.10;99.90;;;;;;4998510;28;20462;-47
2023/01/21 07:17:24;;;;;;;38.23;20.30;;;-2.10;99.90;;;;;;5010186;28;20467;-48
2023/01/21 07:19:53;;;;;;;39.43;21.53;;;-2.10;99.90;;;;;;5010542;28;20470;-48
2023/01/21 07:22:20;;;;;;;43.50;22.63;;;-2.10;99.90;;;;;;5011155;28;20463;-48
2023/01/21 07:24:47;;;;;;;41.27;22.57;;;-2.10;99.90;;;;;;5008922;28;20561;-47
2023/01/21 07:27:15;;;;;;;41.67;22.37;;;-2.00;99.90;;;;;;5005289;28;20475;-48
2023/01/21 07:29:42;;;;;;;39.67;21.70;;;-2.00;99.90;;;;;;5006369;28;20961;-48
2023/01/21 07:32:08;;;;;;;47.47;23.63;;;-2.10;99.90;;;;;;5007154;28;20467;-48
2023/01/21 07:34:35;;;;;;;38.60;20.63;;;-2.10;99.90;;;;;;5007402;28;20849;-48
2023/01/21 07:37:04;;;;;;;38.93;21.13;;;-2.00;99.90;;;;;;5001403;28;20501;-48
2023/01/21 07:39:31;;;;;;;41.87;23.10;;;-2.00;99.90;;;;;;5005207;28;20537;-49
2023/01/21 07:41:58;;;;;;;51.30;23.33;;;-2.00;99.90;;;;;;5005567;28;20512;-48
2023/01/21 07:44:25;;;;;;;44.53;21.60;;;-2.00;99.90;;;;;;5003300;28;20442;-48
2023/01/21 07:46:52;;;;;;;37.27;20.13;;;-2.00;99.90;;;;;;5007688;28;20494;-47
2023/01/21 07:49:19;;;;;;;34.23;19.17;;;-1.90;99.90;;;;;;5004170;28;21037;-48
2023/01/21 07:51:46;;;;;;;43.67;22.13;;;-1.90;99.90;;;;;;5006988;28;20462;-48
2023/01/21 07:54:15;;;;;;;36.00;18.53;;;-2.10;99.90;;;;;;5010267;28;20932;-48
2023/01/21 07:56:42;;;;;;;40.00;20.80;;;-2.20;99.90;;;;;;5011105;28;20464;-48
2023/01/21 07:59:12;;;;;;;48.27;24.50;;;-2.30;99.90;;;;;;5011621;28;20510;-49
2023/01/21 08:01:39;;;;;;;44.27;21.10;;;-2.30;99.90;;;;;;5010183;28;20485;-48
2023/01/21 08:04:08;;;;;;;43.20;19.97;;;-2.30;99.90;;;;;;5010941;28;20509;-48
2023/01/21 08:06:36;;;;;;;40.03;21.80;;;-2.40;99.90;;;;;;5009687;28;20486;-48
2023/01/21 08:09:04;;;;;;;46.43;23.37;;;-2.30;99.90;;;;;;5004124;28;20512;-48
2023/01/21 08:11:32;;;;;;;42.27;20.10;;;-2.20;99.90;;;;;;5011067;28;20449;-49
2023/01/21 08:13:59;;;;;;;47.97;23.33;;;-2.20;99.90;;;;;;5010531;28;21035;-47
2023/01/21 08:16:26;;;;;;;40.13;20.67;;;-2.00;99.90;;;;;;5009377;28;20478;-48
2023/01/21 08:18:53;;;;;;;41.60;20.60;;;-1.90;99.90;;;;;;5009754;28;20525;-48
2023/01/21 08:21:20;;;;;;;42.10;20.63;;;-1.90;99.90;;;;;;5011338;28;20513;-48
2023/01/21 08:23:47;;;;;;;43.30;20.07;;;-1.90;99.90;;;;;;5011424;28;20438;-48
2023/01/21 08:26:14;;;;;;;41.43;21.00;;;-1.90;99.90;;;;;;5010443;28;20817;-48
2023/01/21 08:28:42;;;;;;;40.83;21.20;;;-1.90;99.90;;;;;;5004662;28;20478;-48
2023/01/21 08:31:11;;;;;;;44.63;21.07;;;-2.00;99.90;;;;;;4993009;28;20769;-48
2023/01/21 08:33:39;;;;;;;37.03;20.57;;;-2.10;99.90;;;;;;5011106;28;20454;-48
2023/01/21 08:36:08;;;;;;;35.93;18.90;;;-2.10;99.90;;;;;;5008720;28;20466;-48
2023/01/21 08:38:35;;;;;;;42.70;21.13;;;-2.00;99.90;;;;;;5008571;28;20203;-48
2023/01/21 08:41:02;;;;;;;43.70;20.87;;;-2.00;99.90;;;;;;5003076;28;20889;-49
2023/01/21 08:43:29;;;;;;;36.73;19.03;;;-1.90;99.90;;;;;;5008547;28;20450;-48
2023/01/21 08:46:00;;;;;;;40.33;17.40;;;-1.90;99.90;;;;;;5010850;28;20530;-48
2023/01/21 08:48:28;;;;;;;41.50;20.23;;;-1.80;99.90;;;;;;5011556;28;20575;-48
2023/01/21 08:50:57;;;;;;;39.63;17.97;;;-1.80;99.90;;;;;;4998575;28;20449;-48
2023/01/21 08:53:24;;;;;;;35.07;19.00;;;-1.70;99.90;;;;;;5007442;28;20470;-48
2023/01/21 08:55:51;;;;;;;31.80;17.60;;;-1.70;99.90;;;;;;5007633;28;20490;-47
2023/01/21 08:58:18;;;;;;;38.57;18.50;;;-1.60;99.90;;;;;;5005747;28;21065;-48
2023/01/21 09:00:45;;;;;;;40.30;19.97;;;-1.50;99.90;;;;;;5003408;28;20462;-48
2023/01/21 09:03:16;;;;;;;36.83;19.67;;;-1.40;99.90;;;;;;5011212;28;20279;-48
2023/01/21 09:05:43;;;;;;;38.60;20.47;;;-1.20;99.90;;;;;;5005270;28;20486;-48
2023/01/21 09:08:10;;;;;;;36.37;18.10;;;-1.10;99.90;;;;;;5015652;28;20282;-47
2023/01/21 09:13:22;;;;;;;41.93;19.57;;;-1.10;99.90;;;;;;5013381;28;20433;-48
2023/01/21 09:15:49;;;;;;;35.30;19.30;;;-0.80;99.90;;;;;;5014673;28;20215;-48
2023/01/21 09:18:18;;;;;;;36.60;19.63;;;-0.70;99.90;;;;;;5012634;28;20530;-48
2023/01/21 09:20:47;;;;;;;37.87;19.10;;;-0.70;99.90;;;;;;5014494;28;20200;-48
2023/01/21 09:23:26;;;;;;;35.70;17.60;;;-0.90;99.90;;;;;;4996406;28;20458;-49
2023/01/21 09:25:55;;;;;;;35.67;19.40;;;-0.90;99.90;;;;;;5008647;28;20228;-48
2023/01/21 09:28:23;;;;;;;32.20;18.03;;;-0.90;99.90;;;;;;5010654;28;20286;-49
2023/01/21 09:30:55;;;;;;;38.23;19.93;;;-0.90;99.90;;;;;;5013151;28;20262;-48
2023/01/21 09:33:24;;;;;;;29.87;15.80;;;-1.10;99.90;;;;;;5012500;28;20467;-48
2023/01/21 09:35:53;;;;;;;42.00;19.60;;;-1.20;99.90;;;;;;5008991;28;20224;-55
2023/01/21 09:38:20;;;;;;;34.20;18.60;;;-1.20;99.90;;;;;;5010329;28;20298;-49
2023/01/21 09:40:48;;;;;;;36.47;20.83;;;-1.20;99.90;;;;;;5009875;28;20454;-47
2023/01/21 09:43:21;;;;;;;35.37;17.90;;;-1.20;99.90;;;;;;5006125;28;20202;-48
2023/01/21 09:45:49;;;;;;;36.97;17.37;;;-1.20;99.90;;;;;;5029088;22;20295;-48
2023/01/21 09:48:31;;;;;;;43.67;18.00;;;-1.10;99.90;;;;;;4991556;28;20266;-48
2023/01/21 09:51:02;;;;;;;35.73;17.80;;;-1.10;99.90;;;;;;4989861;28;20234;-49
2023/01/21 09:53:38;;;;;;;30.37;16.30;;;-1.30;99.90;;;;;;4988070;28;20233;-48
2023/01/21 09:56:12;;;;;;;35.40;20.20;;;-1.20;99.90;;;;;;4984450;28;20235;-47
2023/01/21 09:58:44;;;;;;;37.50;20.23;;;-1.20;99.90;;;;;;4991461;28;20192;-48
2023/01/21 10:01:14;;;;;;;38.80;18.73;;;-1.30;99.90;;;;;;4990252;28;20629;-48
2023/01/21 10:03:50;;;;;;;38.73;19.17;;;-1.20;99.90;;;;;;4989519;28;20209;-48
2023/01/21 10:06:34;;;;;;;36.80;21.10;;;-1.10;99.90;;;;;;4989822;28;20538;-48
2023/01/21 10:09:36;;;;;;;34.87;17.67;;;-1.00;99.90;;;;;;4992556;28;20311;-48
2023/01/21 10:12:16;;;;;;;36.77;18.30;;;-0.90;99.90;;;;;;4979372;28;20201;-48
2023/01/21 10:15:21;;;;;;;38.87;18.93;;;-1.00;99.90;;;;;;4992031;28;20246;-49
2023/01/21 10:17:56;;;;;;;30.23;14.93;;;-1.10;99.90;;;;;;4992591;28;20195;-48
2023/01/21 10:20:27;;;;;;;37.93;18.63;;;-1.10;99.90;;;;;;4990069;28;20566;-48
2023/01/21 10:22:58;;;;;;;40.73;18.13;;;-1.10;99.90;;;;;;4992390;28;20224;-48
2023/01/21 10:25:29;;;;;;;37.67;18.03;;;-1.10;99.90;;;;;;4985311;28;20225;-48
2023/01/21 10:27:59;;;;;;;36.90;18.93;;;-0.90;99.90;;;;;;4973641;28;20283;-49
2023/01/21 10:30:29;;;;;;;36.60;19.03;;;-0.80;99.90;;;;;;4988158;28;20267;-48
2023/01/21 10:32:56;;;;;;;33.73;17.10;;;-0.70;99.90;;;;;;4990923;28;20201;-49
2023/01/21 10:35:42;;;;;;;36.10;18.30;;;-0.70;99.90;;;;;;4986848;28;20204;-49
2023/01/21 10:38:17;;;;;;;33.03;17.40;;;-0.80;99.90;;;;;;4986613;28;20200;-48
2023/01/21 10:40:54;;;;;;;36.00;18.87;;;-0.70;99.90;;;;;;4988253;28;20272;-48
2023/01/21 10:43:31;;;;;;;33.87;18.33;;;-0.70;99.90;;;;;;4991439;28;20300;-48
2023/01/21 10:46:07;;;;;;;38.03;19.73;;;-0.50;99.90;;;;;;4984630;28;20288;-48
2023/01/21 10:48:40;;;;;;;34.50;18.47;;;-0.50;99.90;;;;;;4984190;28;20702;-48
2023/01/21 10:51:16;;;;;;;34.43;17.80;;;-0.40;99.90;;;;;;4988618;28;20205;-48
2023/01/21 10:53:48;;;;;;;33.00;18.53;;;-0.40;99.90;;;;;;4991625;28;20205;-49
2023/01/21 10:56:25;;;;;;;31.57;18.17;;;-0.20;99.90;;;;;;4990026;28;20221;-48
2023/01/21 10:58:56;;;;;;;33.40;17.57;;;-0.20;99.90;;;;;;4990430;28;20720;-48
2023/01/21 11:01:29;;;;;;;33.60;18.97;;;-0.30;99.90;;;;;;4989845;28;20636;-47
2023/01/21 11:03:59;;;;;;;41.00;19.60;;;-0.30;99.90;;;;;;4988945;28;20201;-48
2023/01/21 11:06:31;;;;;;;40.03;19.83;;;-0.50;99.90;;;;;;4988272;28;20235;-48
2023/01/21 11:09:02;;;;;;;32.77;18.07;;;-0.50;99.90;;;;;;4987930;28;20224;-48
2023/01/21 11:11:31;;;;;;;34.80;20.43;;;-0.50;99.90;;;;;;4990538;28;20204;-48
2023/01/21 11:13:59;;;;;;;35.93;18.90;;;-0.60;99.90;;;;;;4983867;28;20663;-48
2023/01/21 11:16:37;;;;;;;37.03;19.80;;;-0.50;99.90;;;;;;4991135;28;20225;-48
2023/01/21 11:19:06;;;;;;;35.97;18.70;;;-0.50;99.90;;;;;;4988697;28;20201;-49
2023/01/21 11:21:35;;;;;;;33.47;18.27;;;-0.40;99.90;;;;;;4989778;28;20213;-49
2023/01/21 11:24:04;;;;;;;38.57;19.77;;;-0.30;99.90;;;;;;4990480;28;20790;-48
2023/01/21 11:26:33;;;;;;;38.13;18.30;;;-0.20;99.90;;;;;;4989680;28;20311;-48
2023/01/21 11:29:09;;;;;;;39.33;19.57;;;-0.10;99.90;;;;;;4985925;28;20226;-47
2023/01/21 11:31:37;;;;;;;32.00;17.43;;;-0.10;99.90;;;;;;4990715;28;20216;-48
2023/01/21 11:34:06;;;;;;;28.87;16.73;;;0.00;99.90;;;;;;4990227;28;20266;-48
2023/01/21 11:36:35;;;;;;;30.70;15.37;;;0.10;99.90;;;;;;4987346;28;20283;-48
2023/01/21 11:39:04;;;;;;;38.23;17.43;;;0.00;99.90;;;;;;4983339;28;20262;-48
2023/01/21 11:41:32;;;;;;;34.23;17.63;;;-0.10;99.90;;;;;;4986716;28;20334;-47
2023/01/21 11:44:09;;;;;;;36.47;19.00;;;0.00;99.90;;;;;;4984695;28;20252;-48
2023/01/21 11:46:37;;;;;;;31.77;17.27;;;0.10;99.90;;;;;;4985507;28;20233;-49
2023/01/21 11:49:36;;;;;;;33.23;18.00;;;0.20;99.90;;;;;;4984824;28;20221;-47
2023/01/21 11:52:18;;;;;;;33.83;19.27;;;0.20;99.90;;;;;;4988758;28;20246;-49
2023/01/21 11:54:46;;;;;;;29.03;16.27;;;0.20;99.90;;;;;;4982595;28;20579;-50
2023/01/21 11:57:26;;;;;;;27.43;16.90;;;0.20;99.90;;;;;;4984338;28;20302;-48
2023/01/21 11:59:55;;;;;;;29.10;15.43;;;0.00;99.90;;;;;;4984597;28;20215;-48
2023/01/21 12:02:26;;;;;;;27.93;14.57;;;0.00;99.90;;;;;;4990764;28;20264;-48
2023/01/21 12:04:55;;;;;;;30.50;17.87;;;-0.10;99.90;;;;;;4990674;28;20262;-47
2023/01/21 12:07:30;;;;;;;30.60;17.03;;;-0.10;99.90;;;;;;4989398;28;20225;-48
2023/01/21 12:10:07;;;;;;;28.33;15.30;;;-0.20;99.90;;;;;;4979441;28;20579;-47
2023/01/21 12:12:51;;;;;;;29.33;16.57;;;-0.30;99.90;;;;;;4988977;28;20284;-48
2023/01/21 12:15:36;;;;;;;27.13;15.43;;;-0.20;99.90;;;;;;4991695;28;20213;-48
2023/01/21 12:18:18;;;;;;;29.77;16.60;;;-0.20;99.90;;;;;;4981317;28;20273;-49
2023/01/21 12:20:54;;;;;;;32.03;16.53;;;-0.20;99.90;;;;;;4974506;28;20258;-48
2023/01/21 12:23:48;;;;;;;28.43;15.80;;;-0.20;99.90;;;;;;4990502;28;20633;-47
2023/01/21 12:26:35;;;;;;;25.63;13.70;;;-0.20;99.90;;;;;;4985586;28;20767;-48
2023/01/21 12:29:18;;;;;;;26.07;13.97;;;-0.20;99.90;;;;;;4988932;28;20283;-48
2023/01/21 12:31:50;;;;;;;26.63;14.43;;;-0.20;99.90;;;;;;4985364;28;20232;-47
2023/01/21 12:34:29;;;;;;;24.17;13.73;;;-0.20;99.90;;;;;;4981377;28;20273;-47
2023/01/21 12:37:01;;;;;;;23.63;10.53;;;-0.10;99.90;;;;;;4987813;28;20275;-47
2023/01/21 12:39:32;;;;;;;25.37;12.30;;;-0.20;99.90;;;;;;4990705;28;20271;-48
2023/01/21 12:42:07;;;;;;;25.73;13.53;;;-0.30;99.90;;;;;;4981979;28;20209;-49
2023/01/21 12:44:39;;;;;;;27.97;12.63;;;-0.30;99.90;;;;;;4988649;28;20209;-48
2023/01/21 12:47:20;;;;;;;22.87;13.13;;;-0.30;99.90;;;;;;4988027;28;20231;-48
2023/01/21 12:50:02;;;;;;;22.10;11.93;;;-0.20;99.90;;;;;;4997744;28;20225;-48
2023/01/21 12:52:37;;;;;;;23.40;13.33;;;0.00;99.90;;;;;;4991765;28;20923;-48